This is the latest recevied weather packets stored in our database for station/object SV9FBP. If no packets are shown the sender has not sent any weather packets the latest 10 day(s).
| Time | Temp. | Humidity | Pressure | Rain* | Wind** | Luminosity | Snow |
|---|---|---|---|---|---|---|---|
| 1777908791 | 17.78° C | 43% | 1015.6 hPa | 0 mm | - | - | - |
| 1777907889 | 17.78° C | 42% | 1015.7 hPa | 0 mm | - | - | - |
| 1777906988 | 17.78° C | 42% | 1015.6 hPa | 0 mm | - | - | - |
| 1777906086 | 18.33° C | 42% | 1015.5 hPa | 0 mm | - | - | - |
| 1777905183 | 18.33° C | 41% | 1015.5 hPa | 0 mm | - | - | - |
| 1777904281 | 18.33° C | 41% | 1015.5 hPa | 0 mm | - | - | - |
| 1777903378 | 18.33° C | 41% | 1015.5 hPa | 0 mm | - | - | - |
| 1777902477 | 18.33° C | 41% | 1015.7 hPa | 0 mm | - | - | - |
| 1777901574 | 18.33° C | 42% | 1015.8 hPa | 0 mm | - | - | - |
| 1777900672 | 18.33° C | 43% | 1015.9 hPa | 0 mm | - | - | - |
| 1777899770 | 18.33° C | 42% | 1016 hPa | 0 mm | - | - | - |
| 1777898868 | 18.89° C | 42% | 1016.2 hPa | 0 mm | - | - | - |
| 1777897966 | 19.44° C | 40% | 1016.2 hPa | 0 mm | - | - | - |
| 1777897064 | 19.44° C | 40% | 1016.1 hPa | 0 mm | - | - | - |
| 1777896162 | 19.44° C | 40% | 1016.4 hPa | 0 mm | - | - | - |
| 1777895261 | 19.44° C | 40% | 1016.6 hPa | 0 mm | - | - | - |
| 1777894357 | 19.44° C | 37% | 1016.7 hPa | 0 mm | - | - | - |
| 1777893455 | 19.44° C | 40% | 1016.5 hPa | 0 mm | - | - | - |
| 1777892553 | 19.44° C | 41% | 1016.5 hPa | 0 mm | - | - | - |
| 1777891651 | 18.89° C | 42% | 1016.6 hPa | 0 mm | - | - | - |
| 1777890748 | 18.33° C | 44% | 1016.6 hPa | 0 mm | - | - | - |
| 1777889847 | 17.22° C | 50% | 1016.8 hPa | 0 mm | - | - | - |
| 1777888945 | 16.11° C | 51% | 1017 hPa | 0 mm | - | - | - |
| 1777888043 | 16.11° C | 50% | 1017.1 hPa | 0 mm | - | - | - |
| 1777887139 | 15.56° C | 52% | 1017.3 hPa | 0 mm | - | - | - |
* Rain latest hour (hover to see other rain measurements)
** Current wind speed in m/s (hover to see current wind gust speed)